sensor_id;sensor_type;location;lat;lon;timestamp;P1;durP1;ratioP1;P2;durP2;ratioP2
59308;SDS011;48433;53.016;-2.260;2023-09-19T00:00:47;13.02;;;2.30;;
59308;SDS011;48433;53.016;-2.260;2023-09-19T00:03:16;10.27;;;1.95;;
59308;SDS011;48433;53.016;-2.260;2023-09-19T00:05:44;12.18;;;2.08;;
59308;SDS011;48433;53.016;-2.260;2023-09-19T00:08:13;8.20;;;1.90;;
59308;SDS011;48433;53.016;-2.260;2023-09-19T00:10:41;10.80;;;1.77;;
59308;SDS011;48433;53.016;-2.260;2023-09-19T00:13:09;11.00;;;2.65;;
59308;SDS011;48433;53.016;-2.260;2023-09-19T00:15:45;10.95;;;1.92;;
59308;SDS011;48433;53.016;-2.260;2023-09-19T00:18:17;12.55;;;2.10;;
59308;SDS011;48433;53.016;-2.260;2023-09-19T00:20:49;7.18;;;1.88;;
59308;SDS011;48433;53.016;-2.260;2023-09-19T00:23:19;10.88;;;2.78;;
59308;SDS011;48433;53.016;-2.260;2023-09-19T00:25:47;16.95;;;2.95;;
59308;SDS011;48433;53.016;-2.260;2023-09-19T00:28:17;10.57;;;3.05;;
59308;SDS011;48433;53.016;-2.260;2023-09-19T00:30:47;10.73;;;1.90;;
59308;SDS011;48433;53.016;-2.260;2023-09-19T00:33:18;12.35;;;2.92;;
59308;SDS011;48433;53.016;-2.260;2023-09-19T00:35:47;11.63;;;2.45;;
59308;SDS011;48433;53.016;-2.260;2023-09-19T00:38:19;12.45;;;2.80;;
59308;SDS011;48433;53.016;-2.260;2023-09-19T00:40:50;13.50;;;3.40;;
59308;SDS011;48433;53.016;-2.260;2023-09-19T00:43:21;12.40;;;2.38;;
59308;SDS011;48433;53.016;-2.260;2023-09-19T00:45:53;16.17;;;3.28;;
59308;SDS011;48433;53.016;-2.260;2023-09-19T00:48:22;15.65;;;2.72;;
59308;SDS011;48433;53.016;-2.260;2023-09-19T00:50:52;12.95;;;2.78;;
59308;SDS011;48433;53.016;-2.260;2023-09-19T00:53:21;12.65;;;3.00;;
59308;SDS011;48433;53.016;-2.260;2023-09-19T00:55:53;12.35;;;2.08;;
59308;SDS011;48433;53.016;-2.260;2023-09-19T00:58:23;8.73;;;2.20;;
59308;SDS011;48433;53.016;-2.260;2023-09-19T01:00:51;10.32;;;2.95;;
59308;SDS011;48433;53.016;-2.260;2023-09-19T01:03:20;11.73;;;3.15;;
59308;SDS011;48433;53.016;-2.260;2023-09-19T01:05:49;12.40;;;2.30;;
59308;SDS011;48433;53.016;-2.260;2023-09-19T01:08:19;12.68;;;2.00;;
59308;SDS011;48433;53.016;-2.260;2023-09-19T01:10:55;10.48;;;2.45;;
59308;SDS011;48433;53.016;-2.260;2023-09-19T01:13:31;12.57;;;2.50;;
59308;SDS011;48433;53.016;-2.260;2023-09-19T01:22:03;19.33;;;2.90;;
59308;SDS011;48433;53.016;-2.260;2023-09-19T01:30:29;18.17;;;3.47;;
59308;SDS011;48433;53.016;-2.260;2023-09-19T01:33:02;13.70;;;2.53;;
59308;SDS011;48433;53.016;-2.260;2023-09-19T01:35:33;14.10;;;2.63;;
59308;SDS011;48433;53.016;-2.260;2023-09-19T01:38:01;16.13;;;2.83;;
59308;SDS011;48433;53.016;-2.260;2023-09-19T01:40:29;11.93;;;3.05;;
59308;SDS011;48433;53.016;-2.260;2023-09-19T01:42:58;12.82;;;3.15;;
59308;SDS011;48433;53.016;-2.260;2023-09-19T01:48:35;14.80;;;3.00;;
59308;SDS011;48433;53.016;-2.260;2023-09-19T01:51:16;13.43;;;2.92;;
59308;SDS011;48433;53.016;-2.260;2023-09-19T01:53:54;14.57;;;3.17;;
59308;SDS011;48433;53.016;-2.260;2023-09-19T01:56:40;15.80;;;3.88;;
59308;SDS011;48433;53.016;-2.260;2023-09-19T01:59:16;16.90;;;2.85;;
59308;SDS011;48433;53.016;-2.260;2023-09-19T02:01:48;10.02;;;3.17;;
59308;SDS011;48433;53.016;-2.260;2023-09-19T02:04:19;13.23;;;3.00;;
59308;SDS011;48433;53.016;-2.260;2023-09-19T02:06:46;10.63;;;2.80;;
59308;SDS011;48433;53.016;-2.260;2023-09-19T02:09:14;13.35;;;2.58;;
59308;SDS011;48433;53.016;-2.260;2023-09-19T02:11:42;11.68;;;2.65;;
59308;SDS011;48433;53.016;-2.260;2023-09-19T02:14:10;12.63;;;2.42;;
59308;SDS011;48433;53.016;-2.260;2023-09-19T02:16:38;15.18;;;2.65;;
59308;SDS011;48433;53.016;-2.260;2023-09-19T02:19:05;13.00;;;3.78;;
59308;SDS011;48433;53.016;-2.260;2023-09-19T02:21:33;15.07;;;2.60;;
59308;SDS011;48433;53.016;-2.260;2023-09-19T02:24:02;11.73;;;3.05;;
59308;SDS011;48433;53.016;-2.260;2023-09-19T02:26:30;12.27;;;2.55;;
59308;SDS011;48433;53.016;-2.260;2023-09-19T02:28:58;14.13;;;2.83;;
59308;SDS011;48433;53.016;-2.260;2023-09-19T02:31:26;13.20;;;2.85;;
59308;SDS011;48433;53.016;-2.260;2023-09-19T02:33:56;13.65;;;3.35;;
59308;SDS011;48433;53.016;-2.260;2023-09-19T02:36:24;16.38;;;2.83;;
59308;SDS011;48433;53.016;-2.260;2023-09-19T02:38:52;12.52;;;3.03;;
59308;SDS011;48433;53.016;-2.260;2023-09-19T02:41:20;13.50;;;2.58;;
59308;SDS011;48433;53.016;-2.260;2023-09-19T02:43:47;15.75;;;4.10;;
59308;SDS011;48433;53.016;-2.260;2023-09-19T02:46:15;17.40;;;3.75;;
59308;SDS011;48433;53.016;-2.260;2023-09-19T02:48:44;12.65;;;2.78;;
59308;SDS011;48433;53.016;-2.260;2023-09-19T02:51:11;13.25;;;3.33;;
59308;SDS011;48433;53.016;-2.260;2023-09-19T02:53:40;17.00;;;3.13;;
59308;SDS011;48433;53.016;-2.260;2023-09-19T02:56:09;16.13;;;3.10;;
59308;SDS011;48433;53.016;-2.260;2023-09-19T02:58:39;16.52;;;3.03;;
59308;SDS011;48433;53.016;-2.260;2023-09-19T03:01:11;16.85;;;3.90;;
59308;SDS011;48433;53.016;-2.260;2023-09-19T03:03:40;14.43;;;3.10;;
59308;SDS011;48433;53.016;-2.260;2023-09-19T03:06:08;14.73;;;3.17;;
59308;SDS011;48433;53.016;-2.260;2023-09-19T03:08:40;19.65;;;3.53;;
59308;SDS011;48433;53.016;-2.260;2023-09-19T03:11:10;14.98;;;3.05;;
59308;SDS011;48433;53.016;-2.260;2023-09-19T03:13:40;19.10;;;3.50;;
59308;SDS011;48433;53.016;-2.260;2023-09-19T03:16:10;18.23;;;3.60;;
59308;SDS011;48433;53.016;-2.260;2023-09-19T03:18:39;18.58;;;3.78;;
59308;SDS011;48433;53.016;-2.260;2023-09-19T03:21:07;16.17;;;3.20;;
59308;SDS011;48433;53.016;-2.260;2023-09-19T03:23:34;16.98;;;3.53;;
59308;SDS011;48433;53.016;-2.260;2023-09-19T03:26:02;15.07;;;2.95;;
59308;SDS011;48433;53.016;-2.260;2023-09-19T03:28:33;18.40;;;3.15;;
59308;SDS011;48433;53.016;-2.260;2023-09-19T03:31:03;14.25;;;2.42;;
59308;SDS011;48433;53.016;-2.260;2023-09-19T03:33:34;12.85;;;2.67;;
59308;SDS011;48433;53.016;-2.260;2023-09-19T03:36:02;15.75;;;3.05;;
59308;SDS011;48433;53.016;-2.260;2023-09-19T03:38:34;18.60;;;4.13;;
59308;SDS011;48433;53.016;-2.260;2023-09-19T03:41:02;13.93;;;2.60;;
59308;SDS011;48433;53.016;-2.260;2023-09-19T03:43:31;13.65;;;3.13;;
59308;SDS011;48433;53.016;-2.260;2023-09-19T03:46:03;14.60;;;3.22;;
59308;SDS011;48433;53.016;-2.260;2023-09-19T03:48:35;16.63;;;3.92;;
59308;SDS011;48433;53.016;-2.260;2023-09-19T03:51:03;16.23;;;3.60;;
59308;SDS011;48433;53.016;-2.260;2023-09-19T03:53:32;18.77;;;4.32;;
59308;SDS011;48433;53.016;-2.260;2023-09-19T03:55:59;14.65;;;3.33;;
59308;SDS011;48433;53.016;-2.260;2023-09-19T03:58:31;13.48;;;2.80;;
59308;SDS011;48433;53.016;-2.260;2023-09-19T04:00:59;21.67;;;3.25;;
59308;SDS011;48433;53.016;-2.260;2023-09-19T04:03:28;16.65;;;3.10;;
59308;SDS011;48433;53.016;-2.260;2023-09-19T04:06:03;13.55;;;3.75;;
59308;SDS011;48433;53.016;-2.260;2023-09-19T04:08:31;16.52;;;3.10;;
59308;SDS011;48433;53.016;-2.260;2023-09-19T04:10:58;21.35;;;3.50;;
59308;SDS011;48433;53.016;-2.260;2023-09-19T04:13:26;16.73;;;4.28;;
59308;SDS011;48433;53.016;-2.260;2023-09-19T04:15:54;16.23;;;3.15;;
59308;SDS011;48433;53.016;-2.260;2023-09-19T04:18:21;16.42;;;2.88;;
59308;SDS011;48433;53.016;-2.260;2023-09-19T04:20:50;19.45;;;3.55;;
59308;SDS011;48433;53.016;-2.260;2023-09-19T04:23:19;18.95;;;4.00;;
59308;SDS011;48433;53.016;-2.260;2023-09-19T04:25:48;12.43;;;2.40;;
59308;SDS011;48433;53.016;-2.260;2023-09-19T04:28:15;19.50;;;3.28;;
59308;SDS011;48433;53.016;-2.260;2023-09-19T04:30:43;15.57;;;3.47;;
59308;SDS011;48433;53.016;-2.260;2023-09-19T04:33:11;14.20;;;2.83;;
59308;SDS011;48433;53.016;-2.260;2023-09-19T04:35:41;18.73;;;3.15;;
59308;SDS011;48433;53.016;-2.260;2023-09-19T04:38:12;22.13;;;2.85;;
59308;SDS011;48433;53.016;-2.260;2023-09-19T04:40:41;16.65;;;3.60;;
59308;SDS011;48433;53.016;-2.260;2023-09-19T04:43:17;14.38;;;3.03;;
59308;SDS011;48433;53.016;-2.260;2023-09-19T04:45:45;10.93;;;2.58;;
59308;SDS011;48433;53.016;-2.260;2023-09-19T04:48:13;11.15;;;2.50;;
59308;SDS011;48433;53.016;-2.260;2023-09-19T04:50:43;10.90;;;2.90;;
59308;SDS011;48433;53.016;-2.260;2023-09-19T04:53:11;13.02;;;2.67;;
59308;SDS011;48433;53.016;-2.260;2023-09-19T04:55:39;16.90;;;2.72;;
59308;SDS011;48433;53.016;-2.260;2023-09-19T04:58:07;18.17;;;3.92;;
59308;SDS011;48433;53.016;-2.260;2023-09-19T05:00:34;18.27;;;3.85;;
59308;SDS011;48433;53.016;-2.260;2023-09-19T05:03:02;18.40;;;4.25;;
59308;SDS011;48433;53.016;-2.260;2023-09-19T05:05:31;17.33;;;3.75;;
59308;SDS011;48433;53.016;-2.260;2023-09-19T05:07:59;16.02;;;3.78;;
59308;SDS011;48433;53.016;-2.260;2023-09-19T05:10:32;15.75;;;3.92;;
59308;SDS011;48433;53.016;-2.260;2023-09-19T05:13:00;20.95;;;3.75;;
59308;SDS011;48433;53.016;-2.260;2023-09-19T05:15:28;16.20;;;3.25;;
59308;SDS011;48433;53.016;-2.260;2023-09-19T05:17:55;16.20;;;2.85;;
59308;SDS011;48433;53.016;-2.260;2023-09-19T05:20:25;12.35;;;3.17;;
59308;SDS011;48433;53.016;-2.260;2023-09-19T05:23:05;18.02;;;3.08;;
59308;SDS011;48433;53.016;-2.260;2023-09-19T05:25:40;16.05;;;2.97;;
59308;SDS011;48433;53.016;-2.260;2023-09-19T05:28:09;12.65;;;2.70;;
59308;SDS011;48433;53.016;-2.260;2023-09-19T05:30:38;12.57;;;2.38;;
59308;SDS011;48433;53.016;-2.260;2023-09-19T05:33:07;18.40;;;3.00;;
59308;SDS011;48433;53.016;-2.260;2023-09-19T05:35:35;16.10;;;3.22;;
59308;SDS011;48433;53.016;-2.260;2023-09-19T05:38:09;12.45;;;2.70;;
59308;SDS011;48433;53.016;-2.260;2023-09-19T05:40:37;14.38;;;3.83;;
59308;SDS011;48433;53.016;-2.260;2023-09-19T05:43:06;12.05;;;2.83;;
59308;SDS011;48433;53.016;-2.260;2023-09-19T05:45:34;12.88;;;2.80;;
59308;SDS011;48433;53.016;-2.260;2023-09-19T05:48:12;9.75;;;3.20;;
59308;SDS011;48433;53.016;-2.260;2023-09-19T05:50:42;16.48;;;2.20;;
59308;SDS011;48433;53.016;-2.260;2023-09-19T05:53:10;7.53;;;2.10;;
59308;SDS011;48433;53.016;-2.260;2023-09-19T05:55:42;10.07;;;2.83;;
59308;SDS011;48433;53.016;-2.260;2023-09-19T05:58:10;13.52;;;2.95;;
59308;SDS011;48433;53.016;-2.260;2023-09-19T06:00:41;12.10;;;3.47;;
59308;SDS011;48433;53.016;-2.260;2023-09-19T06:03:10;10.82;;;2.45;;
59308;SDS011;48433;53.016;-2.260;2023-09-19T06:05:41;13.95;;;2.63;;
59308;SDS011;48433;53.016;-2.260;2023-09-19T06:08:08;8.38;;;2.88;;
59308;SDS011;48433;53.016;-2.260;2023-09-19T06:10:36;13.95;;;2.65;;
59308;SDS011;48433;53.016;-2.260;2023-09-19T06:13:04;8.95;;;2.33;;
59308;SDS011;48433;53.016;-2.260;2023-09-19T06:15:33;10.50;;;2.67;;
59308;SDS011;48433;53.016;-2.260;2023-09-19T06:18:03;15.20;;;3.17;;
59308;SDS011;48433;53.016;-2.260;2023-09-19T06:20:32;11.52;;;2.35;;
59308;SDS011;48433;53.016;-2.260;2023-09-19T06:23:05;11.90;;;2.67;;
59308;SDS011;48433;53.016;-2.260;2023-09-19T06:25:33;11.68;;;2.45;;
59308;SDS011;48433;53.016;-2.260;2023-09-19T06:28:00;13.13;;;2.97;;
59308;SDS011;48433;53.016;-2.260;2023-09-19T06:30:31;12.32;;;3.30;;
59308;SDS011;48433;53.016;-2.260;2023-09-19T06:32:59;13.48;;;3.00;;
59308;SDS011;48433;53.016;-2.260;2023-09-19T06:35:28;10.38;;;2.83;;
59308;SDS011;48433;53.016;-2.260;2023-09-19T06:38:03;10.88;;;2.60;;
59308;SDS011;48433;53.016;-2.260;2023-09-19T06:40:33;9.40;;;2.65;;
59308;SDS011;48433;53.016;-2.260;2023-09-19T06:43:01;9.90;;;2.92;;
59308;SDS011;48433;53.016;-2.260;2023-09-19T06:45:30;12.55;;;3.28;;
59308;SDS011;48433;53.016;-2.260;2023-09-19T06:47:59;13.50;;;3.67;;
59308;SDS011;48433;53.016;-2.260;2023-09-19T06:50:27;12.43;;;3.33;;
59308;SDS011;48433;53.016;-2.260;2023-09-19T06:52:58;14.05;;;2.65;;
59308;SDS011;48433;53.016;-2.260;2023-09-19T06:55:26;12.18;;;3.67;;
59308;SDS011;48433;53.016;-2.260;2023-09-19T06:57:56;13.32;;;3.05;;
59308;SDS011;48433;53.016;-2.260;2023-09-19T07:00:24;13.38;;;3.83;;
59308;SDS011;48433;53.016;-2.260;2023-09-19T07:03:03;13.05;;;3.25;;
59308;SDS011;48433;53.016;-2.260;2023-09-19T07:05:40;11.63;;;3.05;;
59308;SDS011;48433;53.016;-2.260;2023-09-19T07:08:10;12.27;;;3.63;;
59308;SDS011;48433;53.016;-2.260;2023-09-19T07:10:40;10.80;;;3.10;;
59308;SDS011;48433;53.016;-2.260;2023-09-19T07:13:09;13.20;;;3.88;;
59308;SDS011;48433;53.016;-2.260;2023-09-19T07:15:38;17.20;;;4.50;;
59308;SDS011;48433;53.016;-2.260;2023-09-19T07:18:09;11.35;;;3.60;;
59308;SDS011;48433;53.016;-2.260;2023-09-19T07:20:38;11.60;;;3.63;;
59308;SDS011;48433;53.016;-2.260;2023-09-19T07:23:06;12.93;;;3.50;;
59308;SDS011;48433;53.016;-2.260;2023-09-19T07:25:34;11.23;;;2.88;;
59308;SDS011;48433;53.016;-2.260;2023-09-19T07:28:03;10.48;;;3.63;;
59308;SDS011;48433;53.016;-2.260;2023-09-19T07:30:31;13.05;;;4.22;;
59308;SDS011;48433;53.016;-2.260;2023-09-19T07:32:59;8.70;;;3.63;;
59308;SDS011;48433;53.016;-2.260;2023-09-19T07:35:27;12.52;;;2.97;;
59308;SDS011;48433;53.016;-2.260;2023-09-19T07:37:55;11.65;;;3.05;;
59308;SDS011;48433;53.016;-2.260;2023-09-19T07:40:23;10.20;;;3.17;;
59308;SDS011;48433;53.016;-2.260;2023-09-19T07:42:57;9.90;;;2.67;;
59308;SDS011;48433;53.016;-2.260;2023-09-19T07:45:28;10.68;;;3.15;;
59308;SDS011;48433;53.016;-2.260;2023-09-19T07:47:57;7.45;;;2.30;;
59308;SDS011;48433;53.016;-2.260;2023-09-19T07:50:25;9.38;;;2.72;;
59308;SDS011;48433;53.016;-2.260;2023-09-19T07:52:53;7.07;;;2.13;;
59308;SDS011;48433;53.016;-2.260;2023-09-19T07:55:21;6.88;;;2.00;;
59308;SDS011;48433;53.016;-2.260;2023-09-19T08:00:20;9.10;;;2.35;;
59308;SDS011;48433;53.016;-2.260;2023-09-19T08:02:48;10.70;;;2.10;;
59308;SDS011;48433;53.016;-2.260;2023-09-19T08:05:24;6.10;;;1.92;;
59308;SDS011;48433;53.016;-2.260;2023-09-19T08:07:53;5.95;;;1.77;;
59308;SDS011;48433;53.016;-2.260;2023-09-19T08:10:23;7.80;;;2.05;;
59308;SDS011;48433;53.016;-2.260;2023-09-19T08:12:54;4.38;;;1.48;;
59308;SDS011;48433;53.016;-2.260;2023-09-19T08:15:25;4.38;;;1.63;;
59308;SDS011;48433;53.016;-2.260;2023-09-19T08:18:16;9.10;;;1.43;;
59308;SDS011;48433;53.016;-2.260;2023-09-19T08:20:50;4.72;;;1.70;;
59308;SDS011;48433;53.016;-2.260;2023-09-19T08:23:19;5.45;;;1.50;;
59308;SDS011;48433;53.016;-2.260;2023-09-19T08:25:48;5.80;;;1.40;;
59308;SDS011;48433;53.016;-2.260;2023-09-19T08:28:16;4.38;;;1.60;;
59308;SDS011;48433;53.016;-2.260;2023-09-19T08:30:52;6.35;;;1.27;;
59308;SDS011;48433;53.016;-2.260;2023-09-19T08:33:22;4.88;;;1.33;;
59308;SDS011;48433;53.016;-2.260;2023-09-19T08:35:49;8.07;;;1.95;;
59308;SDS011;48433;53.016;-2.260;2023-09-19T08:38:17;4.15;;;1.20;;
59308;SDS011;48433;53.016;-2.260;2023-09-19T08:40:45;4.05;;;1.00;;
59308;SDS011;48433;53.016;-2.260;2023-09-19T08:43:13;5.90;;;1.50;;
59308;SDS011;48433;53.016;-2.260;2023-09-19T08:45:41;5.97;;;1.23;;
59308;SDS011;48433;53.016;-2.260;2023-09-19T08:56:46;4.78;;;1.17;;
59308;SDS011;48433;53.016;-2.260;2023-09-19T08:59:14;5.53;;;1.00;;
59308;SDS011;48433;53.016;-2.260;2023-09-19T09:01:44;4.05;;;0.90;;
59308;SDS011;48433;53.016;-2.260;2023-09-19T09:04:13;3.03;;;0.80;;
59308;SDS011;48433;53.016;-2.260;2023-09-19T09:06:41;3.95;;;0.95;;
59308;SDS011;48433;53.016;-2.260;2023-09-19T09:09:10;2.97;;;0.70;;
59308;SDS011;48433;53.016;-2.260;2023-09-19T09:11:39;2.17;;;0.70;;
59308;SDS011;48433;53.016;-2.260;2023-09-19T09:14:07;1.80;;;0.40;;
59308;SDS011;48433;53.016;-2.260;2023-09-19T09:16:36;0.65;;;0.30;;
59308;SDS011;48433;53.016;-2.260;2023-09-19T09:19:04;0.63;;;0.30;;
59308;SDS011;48433;53.016;-2.260;2023-09-19T09:21:32;1.20;;;0.35;;
59308;SDS011;48433;53.016;-2.260;2023-09-19T09:26:57;0.65;;;0.25;;
59308;SDS011;48433;53.016;-2.260;2023-09-19T09:32:19;0.47;;;0.22;;
59308;SDS011;48433;53.016;-2.260;2023-09-19T09:34:52;0.90;;;0.35;;
59308;SDS011;48433;53.016;-2.260;2023-09-19T09:37:25;1.90;;;0.38;;
59308;SDS011;48433;53.016;-2.260;2023-09-19T09:39:56;0.20;;;0.20;;
59308;SDS011;48433;53.016;-2.260;2023-09-19T09:42:29;0.38;;;0.20;;
59308;SDS011;48433;53.016;-2.260;2023-09-19T09:45:11;0.55;;;0.22;;
59308;SDS011;48433;53.016;-2.260;2023-09-19T09:47:46;0.20;;;0.20;;
59308;SDS011;48433;53.016;-2.260;2023-09-19T09:50:37;0.45;;;0.28;;
59308;SDS011;48433;53.016;-2.260;2023-09-19T09:53:24;1.90;;;0.20;;
59308;SDS011;48433;53.016;-2.260;2023-09-19T09:56:00;0.38;;;0.20;;
59308;SDS011;48433;53.016;-2.260;2023-09-19T09:58:37;0.85;;;0.17;;
59308;SDS011;48433;53.016;-2.260;2023-09-19T10:01:16;0.70;;;0.17;;
59308;SDS011;48433;53.016;-2.260;2023-09-19T10:03:45;0.85;;;0.30;;
59308;SDS011;48433;53.016;-2.260;2023-09-19T10:06:19;0.38;;;0.20;;
59308;SDS011;48433;53.016;-2.260;2023-09-19T10:09:05;1.38;;;0.30;;
59308;SDS011;48433;53.016;-2.260;2023-09-19T10:11:42;0.25;;;0.20;;
59308;SDS011;48433;53.016;-2.260;2023-09-19T10:14:15;1.45;;;0.30;;
59308;SDS011;48433;53.016;-2.260;2023-09-19T10:16:46;0.30;;;0.10;;
59308;SDS011;48433;53.016;-2.260;2023-09-19T10:19:16;0.30;;;0.22;;
59308;SDS011;48433;53.016;-2.260;2023-09-19T10:22:04;0.35;;;0.20;;
59308;SDS011;48433;53.016;-2.260;2023-09-19T10:24:35;0.98;;;0.25;;
59308;SDS011;48433;53.016;-2.260;2023-09-19T10:27:22;1.27;;;0.30;;
59308;SDS011;48433;53.016;-2.260;2023-09-19T10:29:53;3.93;;;0.33;;
59308;SDS011;48433;53.016;-2.260;2023-09-19T10:32:24;1.55;;;0.20;;
59308;SDS011;48433;53.016;-2.260;2023-09-19T10:34:54;0.50;;;0.10;;
59308;SDS011;48433;53.016;-2.260;2023-09-19T10:37:24;1.17;;;0.40;;
59308;SDS011;48433;53.016;-2.260;2023-09-19T10:39:54;0.32;;;0.20;;
59308;SDS011;48433;53.016;-2.260;2023-09-19T10:42:24;1.55;;;0.32;;
59308;SDS011;48433;53.016;-2.260;2023-09-19T10:44:58;0.85;;;0.40;;
59308;SDS011;48433;53.016;-2.260;2023-09-19T10:49:58;0.57;;;0.35;;
59308;SDS011;48433;53.016;-2.260;2023-09-19T10:52:25;0.95;;;0.45;;
59308;SDS011;48433;53.016;-2.260;2023-09-19T10:54:56;1.17;;;0.47;;
59308;SDS011;48433;53.016;-2.260;2023-09-19T10:57:26;1.88;;;0.50;;
59308;SDS011;48433;53.016;-2.260;2023-09-19T11:00:05;0.88;;;0.43;;
59308;SDS011;48433;53.016;-2.260;2023-09-19T11:09:01;6.10;;;0.85;;
59308;SDS011;48433;53.016;-2.260;2023-09-19T11:11:43;1.90;;;0.50;;
59308;SDS011;48433;53.016;-2.260;2023-09-19T11:30:53;1.25;;;0.45;;
59308;SDS011;48433;53.016;-2.260;2023-09-19T11:33:22;1.42;;;0.43;;
59308;SDS011;48433;53.016;-2.260;2023-09-19T11:36:04;1.45;;;0.43;;
59308;SDS011;48433;53.016;-2.260;2023-09-19T11:41:58;1.70;;;0.40;;
59308;SDS011;48433;53.016;-2.260;2023-09-19T11:46:34;1.60;;;0.40;;
59308;SDS011;48433;53.016;-2.260;2023-09-19T11:49:40;1.27;;;0.30;;
59308;SDS011;48433;53.016;-2.260;2023-09-19T11:52:07;0.60;;;0.28;;
59308;SDS011;48433;53.016;-2.260;2023-09-19T11:54:36;2.90;;;0.40;;
59308;SDS011;48433;53.016;-2.260;2023-09-19T11:57:07;2.58;;;0.40;;
59308;SDS011;48433;53.016;-2.260;2023-09-19T11:59:38;0.88;;;0.45;;
59308;SDS011;48433;53.016;-2.260;2023-09-19T12:02:07;1.25;;;0.30;;
59308;SDS011;48433;53.016;-2.260;2023-09-19T12:04:41;0.47;;;0.40;;
59308;SDS011;48433;53.016;-2.260;2023-09-19T12:07:14;1.85;;;0.40;;
59308;SDS011;48433;53.016;-2.260;2023-09-19T12:09:44;0.93;;;0.40;;
59308;SDS011;48433;53.016;-2.260;2023-09-19T12:12:20;1.27;;;0.32;;
59308;SDS011;48433;53.016;-2.260;2023-09-19T12:14:50;1.33;;;0.40;;
59308;SDS011;48433;53.016;-2.260;2023-09-19T12:17:18;0.95;;;0.40;;
59308;SDS011;48433;53.016;-2.260;2023-09-19T12:19:50;1.85;;;0.50;;
59308;SDS011;48433;53.016;-2.260;2023-09-19T12:22:19;0.90;;;0.32;;
59308;SDS011;48433;53.016;-2.260;2023-09-19T12:24:50;1.10;;;0.50;;
59308;SDS011;48433;53.016;-2.260;2023-09-19T12:27:22;1.88;;;0.52;;
59308;SDS011;48433;53.016;-2.260;2023-09-19T12:29:49;0.68;;;0.20;;
59308;SDS011;48433;53.016;-2.260;2023-09-19T12:32:34;3.70;;;0.60;;
59308;SDS011;48433;53.016;-2.260;2023-09-19T12:35:03;1.33;;;0.47;;
59308;SDS011;48433;53.016;-2.260;2023-09-19T12:37:42;6.18;;;1.40;;
59308;SDS011;48433;53.016;-2.260;2023-09-19T12:40:20;2.95;;;0.43;;
59308;SDS011;48433;53.016;-2.260;2023-09-19T12:42:57;1.02;;;0.30;;
59308;SDS011;48433;53.016;-2.260;2023-09-19T12:45:31;3.13;;;0.65;;
59308;SDS011;48433;53.016;-2.260;2023-09-19T12:48:17;2.75;;;0.52;;
59308;SDS011;48433;53.016;-2.260;2023-09-19T12:51:09;3.30;;;0.50;;
59308;SDS011;48433;53.016;-2.260;2023-09-19T12:53:43;3.80;;;0.75;;
59308;SDS011;48433;53.016;-2.260;2023-09-19T12:56:14;2.22;;;0.77;;
59308;SDS011;48433;53.016;-2.260;2023-09-19T12:58:56;2.90;;;0.60;;
59308;SDS011;48433;53.016;-2.260;2023-09-19T13:01:34;2.47;;;0.85;;
59308;SDS011;48433;53.016;-2.260;2023-09-19T13:04:14;7.28;;;0.75;;
59308;SDS011;48433;53.016;-2.260;2023-09-19T13:07:08;4.88;;;0.95;;
59308;SDS011;48433;53.016;-2.260;2023-09-19T13:10:16;4.15;;;1.17;;
59308;SDS011;48433;53.016;-2.260;2023-09-19T13:12:47;4.82;;;1.08;;
59308;SDS011;48433;53.016;-2.260;2023-09-19T13:15:15;4.43;;;1.33;;
59308;SDS011;48433;53.016;-2.260;2023-09-19T13:17:47;4.82;;;0.85;;
59308;SDS011;48433;53.016;-2.260;2023-09-19T13:20:25;3.95;;;1.38;;
59308;SDS011;48433;53.016;-2.260;2023-09-19T13:22:56;8.32;;;1.02;;
59308;SDS011;48433;53.016;-2.260;2023-09-19T13:25:33;6.28;;;1.20;;
59308;SDS011;48433;53.016;-2.260;2023-09-19T13:28:04;8.35;;;1.50;;
59308;SDS011;48433;53.016;-2.260;2023-09-19T13:30:33;7.93;;;1.20;;
59308;SDS011;48433;53.016;-2.260;2023-09-19T13:33:12;6.55;;;2.03;;
59308;SDS011;48433;53.016;-2.260;2023-09-19T13:35:46;8.32;;;2.15;;
59308;SDS011;48433;53.016;-2.260;2023-09-19T13:38:15;7.47;;;1.63;;
59308;SDS011;48433;53.016;-2.260;2023-09-19T13:40:43;6.28;;;1.60;;
59308;SDS011;48433;53.016;-2.260;2023-09-19T13:43:10;7.93;;;2.03;;
59308;SDS011;48433;53.016;-2.260;2023-09-19T13:45:39;12.15;;;2.13;;
59308;SDS011;48433;53.016;-2.260;2023-09-19T13:48:09;10.17;;;2.60;;
59308;SDS011;48433;53.016;-2.260;2023-09-19T13:50:40;13.63;;;2.83;;
59308;SDS011;48433;53.016;-2.260;2023-09-19T13:53:09;11.25;;;2.40;;
59308;SDS011;48433;53.016;-2.260;2023-09-19T13:55:37;15.98;;;2.38;;
59308;SDS011;48433;53.016;-2.260;2023-09-19T13:58:05;9.23;;;2.10;;
59308;SDS011;48433;53.016;-2.260;2023-09-19T14:00:34;14.02;;;2.15;;
59308;SDS011;48433;53.016;-2.260;2023-09-19T14:03:02;8.68;;;2.03;;
59308;SDS011;48433;53.016;-2.260;2023-09-19T14:05:32;11.18;;;2.40;;
59308;SDS011;48433;53.016;-2.260;2023-09-19T14:08:00;10.65;;;2.20;;
59308;SDS011;48433;53.016;-2.260;2023-09-19T14:10:28;8.25;;;2.25;;
59308;SDS011;48433;53.016;-2.260;2023-09-19T14:12:58;10.02;;;2.70;;
59308;SDS011;48433;53.016;-2.260;2023-09-19T14:15:27;15.73;;;2.95;;
59308;SDS011;48433;53.016;-2.260;2023-09-19T14:17:57;15.00;;;3.35;;
59308;SDS011;48433;53.016;-2.260;2023-09-19T14:20:26;14.27;;;3.20;;
59308;SDS011;48433;53.016;-2.260;2023-09-19T14:22:55;21.67;;;4.03;;
59308;SDS011;48433;53.016;-2.260;2023-09-19T14:25:22;13.48;;;3.22;;
59308;SDS011;48433;53.016;-2.260;2023-09-19T14:27:50;13.00;;;3.28;;
59308;SDS011;48433;53.016;-2.260;2023-09-19T14:30:18;12.10;;;3.17;;
59308;SDS011;48433;53.016;-2.260;2023-09-19T14:32:46;8.73;;;2.40;;
59308;SDS011;48433;53.016;-2.260;2023-09-19T14:35:14;10.50;;;2.40;;
59308;SDS011;48433;53.016;-2.260;2023-09-19T14:37:42;15.45;;;3.38;;
59308;SDS011;48433;53.016;-2.260;2023-09-19T14:40:09;10.55;;;2.03;;
59308;SDS011;48433;53.016;-2.260;2023-09-19T14:42:40;16.55;;;4.05;;
59308;SDS011;48433;53.016;-2.260;2023-09-19T14:45:08;10.98;;;2.08;;
59308;SDS011;48433;53.016;-2.260;2023-09-19T14:47:36;9.57;;;2.53;;
59308;SDS011;48433;53.016;-2.260;2023-09-19T14:50:04;10.45;;;2.45;;
59308;SDS011;48433;53.016;-2.260;2023-09-19T14:52:34;9.43;;;2.65;;
59308;SDS011;48433;53.016;-2.260;2023-09-19T14:55:03;17.70;;;3.33;;
59308;SDS011;48433;53.016;-2.260;2023-09-19T14:57:33;9.20;;;1.85;;
59308;SDS011;48433;53.016;-2.260;2023-09-19T15:00:00;9.70;;;2.30;;
59308;SDS011;48433;53.016;-2.260;2023-09-19T15:02:29;9.20;;;2.78;;
59308;SDS011;48433;53.016;-2.260;2023-09-19T15:04:58;9.75;;;2.38;;
59308;SDS011;48433;53.016;-2.260;2023-09-19T15:07:26;14.35;;;2.58;;
59308;SDS011;48433;53.016;-2.260;2023-09-19T15:09:56;10.23;;;2.75;;
59308;SDS011;48433;53.016;-2.260;2023-09-19T15:12:24;10.27;;;2.30;;
59308;SDS011;48433;53.016;-2.260;2023-09-19T15:14:52;8.35;;;2.25;;
59308;SDS011;48433;53.016;-2.260;2023-09-19T15:17:19;12.93;;;3.22;;
59308;SDS011;48433;53.016;-2.260;2023-09-19T15:19:49;10.40;;;2.45;;
59308;SDS011;48433;53.016;-2.260;2023-09-19T15:22:17;16.55;;;2.78;;
59308;SDS011;48433;53.016;-2.260;2023-09-19T15:24:44;11.10;;;2.00;;
59308;SDS011;48433;53.016;-2.260;2023-09-19T15:27:12;11.10;;;2.75;;
59308;SDS011;48433;53.016;-2.260;2023-09-19T15:29:40;10.82;;;1.80;;
59308;SDS011;48433;53.016;-2.260;2023-09-19T15:32:09;9.23;;;2.05;;
59308;SDS011;48433;53.016;-2.260;2023-09-19T15:34:37;15.55;;;1.90;;
59308;SDS011;48433;53.016;-2.260;2023-09-19T15:37:05;11.38;;;2.53;;
59308;SDS011;48433;53.016;-2.260;2023-09-19T15:39:33;11.70;;;2.05;;
59308;SDS011;48433;53.016;-2.260;2023-09-19T15:42:00;8.20;;;2.00;;
59308;SDS011;48433;53.016;-2.260;2023-09-19T15:44:28;12.20;;;2.75;;
59308;SDS011;48433;53.016;-2.260;2023-09-19T15:46:55;11.00;;;2.10;;
59308;SDS011;48433;53.016;-2.260;2023-09-19T15:49:26;12.05;;;3.42;;